sensor_id;sensor_type;location;lat;lon;timestamp;temperature;humidity
10883;DHT22;5494;51.796;10.952;2024-03-02T00:01:35;8.70;1.00
10883;DHT22;5494;51.796;10.952;2024-03-02T00:04:04;8.70;1.00
10883;DHT22;5494;51.796;10.952;2024-03-02T00:06:33;8.70;1.00
10883;DHT22;5494;51.796;10.952;2024-03-02T00:09:02;8.80;1.00
10883;DHT22;5494;51.796;10.952;2024-03-02T00:11:35;8.80;1.00
10883;DHT22;5494;51.796;10.952;2024-03-02T00:14:05;8.70;1.00
10883;DHT22;5494;51.796;10.952;2024-03-02T00:16:33;8.70;1.00
10883;DHT22;5494;51.796;10.952;2024-03-02T00:19:02;8.80;1.00
10883;DHT22;5494;51.796;10.952;2024-03-02T00:21:32;8.80;1.00
10883;DHT22;5494;51.796;10.952;2024-03-02T00:24:01;8.80;1.00
10883;DHT22;5494;51.796;10.952;2024-03-02T00:26:45;8.70;1.00
10883;DHT22;5494;51.796;10.952;2024-03-02T00:29:16;8.50;1.00
10883;DHT22;5494;51.796;10.952;2024-03-02T00:31:45;8.50;1.00
10883;DHT22;5494;51.796;10.952;2024-03-02T00:34:15;8.60;1.00
10883;DHT22;5494;51.796;10.952;2024-03-02T00:36:45;8.60;1.00
10883;DHT22;5494;51.796;10.952;2024-03-02T00:39:16;8.60;1.00
10883;DHT22;5494;51.796;10.952;2024-03-02T00:41:45;8.50;1.00
10883;DHT22;5494;51.796;10.952;2024-03-02T00:44:14;8.40;1.00
10883;DHT22;5494;51.796;10.952;2024-03-02T00:46:43;8.30;1.00
10883;DHT22;5494;51.796;10.952;2024-03-02T00:49:21;8.30;1.00
10883;DHT22;5494;51.796;10.952;2024-03-02T00:51:51;8.20;1.00
10883;DHT22;5494;51.796;10.952;2024-03-02T00:54:22;8.10;1.00
10883;DHT22;5494;51.796;10.952;2024-03-02T00:56:51;8.10;1.00
10883;DHT22;5494;51.796;10.952;2024-03-02T00:59:23;8.10;2.20
10883;DHT22;5494;51.796;10.952;2024-03-02T01:01:51;8.10;24.10
10883;DHT22;5494;51.796;10.952;2024-03-02T01:04:20;8.20;1.00
10883;DHT22;5494;51.796;10.952;2024-03-02T01:06:48;8.20;1.00
10883;DHT22;5494;51.796;10.952;2024-03-02T01:09:16;8.10;1.00
10883;DHT22;5494;51.796;10.952;2024-03-02T01:11:45;8.00;9.00
10883;DHT22;5494;51.796;10.952;2024-03-02T01:14:13;8.10;54.10
10883;DHT22;5494;51.796;10.952;2024-03-02T01:16:42;8.10;12.20
10883;DHT22;5494;51.796;10.952;2024-03-02T01:19:10;8.00;60.90
10883;DHT22;5494;51.796;10.952;2024-03-02T01:21:38;8.00;39.20
10883;DHT22;5494;51.796;10.952;2024-03-02T01:24:06;7.90;66.90
10883;DHT22;5494;51.796;10.952;2024-03-02T01:26:34;7.80;99.90
10883;DHT22;5494;51.796;10.952;2024-03-02T01:29:02;7.70;99.90
10883;DHT22;5494;51.796;10.952;2024-03-02T01:31:30;7.70;99.90
10883;DHT22;5494;51.796;10.952;2024-03-02T01:33:59;7.70;99.90
10883;DHT22;5494;51.796;10.952;2024-03-02T01:36:27;7.60;99.90
10883;DHT22;5494;51.796;10.952;2024-03-02T01:38:56;7.70;99.90
10883;DHT22;5494;51.796;10.952;2024-03-02T01:41:24;7.70;99.90
10883;DHT22;5494;51.796;10.952;2024-03-02T01:43:52;7.80;99.90
10883;DHT22;5494;51.796;10.952;2024-03-02T01:46:20;7.80;99.90
10883;DHT22;5494;51.796;10.952;2024-03-02T01:48:48;7.90;99.90
10883;DHT22;5494;51.796;10.952;2024-03-02T01:51:18;7.90;99.90
10883;DHT22;5494;51.796;10.952;2024-03-02T01:53:46;7.90;99.90
10883;DHT22;5494;51.796;10.952;2024-03-02T01:56:14;7.90;99.90
10883;DHT22;5494;51.796;10.952;2024-03-02T01:58:42;7.80;99.90
10883;DHT22;5494;51.796;10.952;2024-03-02T02:01:11;7.70;99.90
10883;DHT22;5494;51.796;10.952;2024-03-02T02:03:39;7.70;99.90
10883;DHT22;5494;51.796;10.952;2024-03-02T02:06:08;7.70;99.90
10883;DHT22;5494;51.796;10.952;2024-03-02T02:08:38;7.80;99.90
10883;DHT22;5494;51.796;10.952;2024-03-02T02:11:06;7.80;99.90
10883;DHT22;5494;51.796;10.952;2024-03-02T02:13:34;7.80;99.90
10883;DHT22;5494;51.796;10.952;2024-03-02T02:16:06;7.80;99.90
10883;DHT22;5494;51.796;10.952;2024-03-02T02:18:34;7.80;99.90
10883;DHT22;5494;51.796;10.952;2024-03-02T02:21:03;7.80;99.90
10883;DHT22;5494;51.796;10.952;2024-03-02T02:23:33;7.80;99.90
10883;DHT22;5494;51.796;10.952;2024-03-02T02:26:01;7.90;99.90
10883;DHT22;5494;51.796;10.952;2024-03-02T02:28:30;7.90;99.90
10883;DHT22;5494;51.796;10.952;2024-03-02T02:30:58;7.90;99.90
10883;DHT22;5494;51.796;10.952;2024-03-02T02:33:27;7.80;99.90
10883;DHT22;5494;51.796;10.952;2024-03-02T02:35:56;7.80;99.90
10883;DHT22;5494;51.796;10.952;2024-03-02T02:38:28;7.90;99.90
10883;DHT22;5494;51.796;10.952;2024-03-02T02:40:57;8.00;99.90
10883;DHT22;5494;51.796;10.952;2024-03-02T02:43:25;7.90;99.90
10883;DHT22;5494;51.796;10.952;2024-03-02T02:45:53;8.00;99.90
10883;DHT22;5494;51.796;10.952;2024-03-02T02:48:21;8.00;99.90
10883;DHT22;5494;51.796;10.952;2024-03-02T02:50:49;8.00;99.90
10883;DHT22;5494;51.796;10.952;2024-03-02T02:53:17;8.00;99.90
10883;DHT22;5494;51.796;10.952;2024-03-02T02:55:45;8.00;99.90
10883;DHT22;5494;51.796;10.952;2024-03-02T02:58:14;8.00;99.90
10883;DHT22;5494;51.796;10.952;2024-03-02T03:00:42;8.00;99.90
10883;DHT22;5494;51.796;10.952;2024-03-02T03:03:10;8.10;99.90
10883;DHT22;5494;51.796;10.952;2024-03-02T03:05:38;8.10;99.90
10883;DHT22;5494;51.796;10.952;2024-03-02T03:08:06;8.10;99.90
10883;DHT22;5494;51.796;10.952;2024-03-02T03:10:34;8.10;99.90
10883;DHT22;5494;51.796;10.952;2024-03-02T03:13:03;8.00;99.90
10883;DHT22;5494;51.796;10.952;2024-03-02T03:15:36;8.00;99.90
10883;DHT22;5494;51.796;10.952;2024-03-02T03:18:05;8.00;99.90
10883;DHT22;5494;51.796;10.952;2024-03-02T03:20:34;8.10;99.90
10883;DHT22;5494;51.796;10.952;2024-03-02T03:23:02;8.00;99.90
10883;DHT22;5494;51.796;10.952;2024-03-02T03:25:30;8.00;99.90
10883;DHT22;5494;51.796;10.952;2024-03-02T03:27:58;7.90;99.90
10883;DHT22;5494;51.796;10.952;2024-03-02T03:30:27;7.90;99.90
10883;DHT22;5494;51.796;10.952;2024-03-02T03:32:57;7.90;99.90
10883;DHT22;5494;51.796;10.952;2024-03-02T03:35:25;7.90;99.90
10883;DHT22;5494;51.796;10.952;2024-03-02T03:37:53;7.90;99.90
10883;DHT22;5494;51.796;10.952;2024-03-02T03:40:21;7.90;99.90
10883;DHT22;5494;51.796;10.952;2024-03-02T03:42:50;8.10;99.90
10883;DHT22;5494;51.796;10.952;2024-03-02T03:45:18;8.10;99.90
10883;DHT22;5494;51.796;10.952;2024-03-02T03:47:46;8.10;99.90
10883;DHT22;5494;51.796;10.952;2024-03-02T03:50:16;8.10;99.90
10883;DHT22;5494;51.796;10.952;2024-03-02T03:52:43;8.20;99.90
10883;DHT22;5494;51.796;10.952;2024-03-02T03:55:12;8.20;99.90
10883;DHT22;5494;51.796;10.952;2024-03-02T03:57:40;8.20;99.90
10883;DHT22;5494;51.796;10.952;2024-03-02T04:00:09;8.30;99.90
10883;DHT22;5494;51.796;10.952;2024-03-02T04:02:39;8.30;99.90
10883;DHT22;5494;51.796;10.952;2024-03-02T04:05:07;8.50;99.90
10883;DHT22;5494;51.796;10.952;2024-03-02T04:07:39;8.50;99.90
10883;DHT22;5494;51.796;10.952;2024-03-02T04:10:08;8.40;99.90
10883;DHT22;5494;51.796;10.952;2024-03-02T04:12:38;8.50;99.90
10883;DHT22;5494;51.796;10.952;2024-03-02T04:15:07;8.30;99.90
10883;DHT22;5494;51.796;10.952;2024-03-02T04:17:36;8.20;99.90
10883;DHT22;5494;51.796;10.952;2024-03-02T04:20:04;8.10;99.90
10883;DHT22;5494;51.796;10.952;2024-03-02T04:22:34;8.10;99.90
10883;DHT22;5494;51.796;10.952;2024-03-02T04:25:04;8.00;99.90
10883;DHT22;5494;51.796;10.952;2024-03-02T04:27:34;7.90;99.90
10883;DHT22;5494;51.796;10.952;2024-03-02T04:30:04;7.70;99.90
10883;DHT22;5494;51.796;10.952;2024-03-02T04:32:33;7.70;99.90
10883;DHT22;5494;51.796;10.952;2024-03-02T04:35:03;7.70;99.90
10883;DHT22;5494;51.796;10.952;2024-03-02T04:37:33;7.80;99.90
10883;DHT22;5494;51.796;10.952;2024-03-02T04:40:03;7.80;99.90
10883;DHT22;5494;51.796;10.952;2024-03-02T04:42:34;7.80;99.90
10883;DHT22;5494;51.796;10.952;2024-03-02T04:45:03;7.90;99.90
10883;DHT22;5494;51.796;10.952;2024-03-02T04:47:31;7.90;99.90
10883;DHT22;5494;51.796;10.952;2024-03-02T04:49:59;7.90;99.90
10883;DHT22;5494;51.796;10.952;2024-03-02T04:52:27;7.90;99.90
10883;DHT22;5494;51.796;10.952;2024-03-02T04:54:55;7.90;99.90
10883;DHT22;5494;51.796;10.952;2024-03-02T04:57:57;7.60;99.90
10883;DHT22;5494;51.796;10.952;2024-03-02T05:00:25;7.90;99.90
10883;DHT22;5494;51.796;10.952;2024-03-02T05:02:53;7.90;99.90
10883;DHT22;5494;51.796;10.952;2024-03-02T05:05:21;8.00;99.90
10883;DHT22;5494;51.796;10.952;2024-03-02T05:07:49;8.10;99.90
10883;DHT22;5494;51.796;10.952;2024-03-02T05:10:17;8.10;99.90
10883;DHT22;5494;51.796;10.952;2024-03-02T05:12:45;8.10;99.90
10883;DHT22;5494;51.796;10.952;2024-03-02T05:15:26;8.20;99.90
10883;DHT22;5494;51.796;10.952;2024-03-02T05:17:54;8.10;99.90
10883;DHT22;5494;51.796;10.952;2024-03-02T05:20:23;8.20;99.90
10883;DHT22;5494;51.796;10.952;2024-03-02T05:22:51;8.10;99.90
10883;DHT22;5494;51.796;10.952;2024-03-02T05:25:19;8.10;99.90
10883;DHT22;5494;51.796;10.952;2024-03-02T05:27:47;8.10;99.90
10883;DHT22;5494;51.796;10.952;2024-03-02T05:30:16;8.10;99.90
10883;DHT22;5494;51.796;10.952;2024-03-02T05:32:45;8.10;99.90
10883;DHT22;5494;51.796;10.952;2024-03-02T05:35:13;8.00;99.90
10883;DHT22;5494;51.796;10.952;2024-03-02T05:37:41;8.00;99.90
10883;DHT22;5494;51.796;10.952;2024-03-02T05:40:09;7.90;99.90
10883;DHT22;5494;51.796;10.952;2024-03-02T05:42:39;7.90;99.90
10883;DHT22;5494;51.796;10.952;2024-03-02T05:45:08;7.90;99.90
10883;DHT22;5494;51.796;10.952;2024-03-02T05:47:36;7.90;99.90
10883;DHT22;5494;51.796;10.952;2024-03-02T05:50:07;7.90;99.90
10883;DHT22;5494;51.796;10.952;2024-03-02T05:52:35;7.90;99.90
10883;DHT22;5494;51.796;10.952;2024-03-02T05:55:04;7.80;99.90
10883;DHT22;5494;51.796;10.952;2024-03-02T05:57:32;7.90;99.90
10883;DHT22;5494;51.796;10.952;2024-03-02T06:00:14;7.90;99.90
10883;DHT22;5494;51.796;10.952;2024-03-02T06:02:44;7.90;99.90
10883;DHT22;5494;51.796;10.952;2024-03-02T06:05:13;7.80;99.90
10883;DHT22;5494;51.796;10.952;2024-03-02T06:07:43;7.90;99.90
10883;DHT22;5494;51.796;10.952;2024-03-02T06:10:11;7.90;99.90
10883;DHT22;5494;51.796;10.952;2024-03-02T06:12:40;7.80;99.90
10883;DHT22;5494;51.796;10.952;2024-03-02T06:15:09;7.90;99.90
10883;DHT22;5494;51.796;10.952;2024-03-02T06:17:37;7.90;99.90
10883;DHT22;5494;51.796;10.952;2024-03-02T06:20:06;7.90;99.90
10883;DHT22;5494;51.796;10.952;2024-03-02T06:22:37;8.00;99.90
10883;DHT22;5494;51.796;10.952;2024-03-02T06:25:05;8.10;99.90
10883;DHT22;5494;51.796;10.952;2024-03-02T06:27:35;8.10;99.90
10883;DHT22;5494;51.796;10.952;2024-03-02T06:30:04;8.10;99.90
10883;DHT22;5494;51.796;10.952;2024-03-02T06:32:32;8.20;99.90
10883;DHT22;5494;51.796;10.952;2024-03-02T06:35:00;8.30;99.90
10883;DHT22;5494;51.796;10.952;2024-03-02T06:37:30;8.30;99.90
10883;DHT22;5494;51.796;10.952;2024-03-02T06:39:59;8.50;99.90
10883;DHT22;5494;51.796;10.952;2024-03-02T06:42:29;8.60;99.90
10883;DHT22;5494;51.796;10.952;2024-03-02T06:45:00;8.70;99.90
10883;DHT22;5494;51.796;10.952;2024-03-02T06:47:28;8.80;99.90
10883;DHT22;5494;51.796;10.952;2024-03-02T06:49:56;8.90;99.90
10883;DHT22;5494;51.796;10.952;2024-03-02T06:52:25;8.90;99.90
10883;DHT22;5494;51.796;10.952;2024-03-02T06:54:53;8.80;99.90
10883;DHT22;5494;51.796;10.952;2024-03-02T06:57:23;8.70;99.90
10883;DHT22;5494;51.796;10.952;2024-03-02T06:59:51;8.60;99.90
10883;DHT22;5494;51.796;10.952;2024-03-02T07:02:21;8.50;99.90
10883;DHT22;5494;51.796;10.952;2024-03-02T07:04:50;8.40;99.90
10883;DHT22;5494;51.796;10.952;2024-03-02T07:07:18;8.30;99.90
10883;DHT22;5494;51.796;10.952;2024-03-02T07:09:46;8.30;99.90
10883;DHT22;5494;51.796;10.952;2024-03-02T07:12:15;8.40;99.90
10883;DHT22;5494;51.796;10.952;2024-03-02T07:14:44;8.40;99.90
10883;DHT22;5494;51.796;10.952;2024-03-02T07:17:37;8.60;99.90
10883;DHT22;5494;51.796;10.952;2024-03-02T07:20:06;8.70;99.90
10883;DHT22;5494;51.796;10.952;2024-03-02T07:22:35;8.70;99.90
10883;DHT22;5494;51.796;10.952;2024-03-02T07:25:07;8.90;99.90
10883;DHT22;5494;51.796;10.952;2024-03-02T07:27:55;9.00;99.90
10883;DHT22;5494;51.796;10.952;2024-03-02T07:30:25;9.10;99.90
10883;DHT22;5494;51.796;10.952;2024-03-02T07:32:53;9.20;99.90
10883;DHT22;5494;51.796;10.952;2024-03-02T07:35:21;9.20;99.90
10883;DHT22;5494;51.796;10.952;2024-03-02T07:37:53;9.40;99.90
10883;DHT22;5494;51.796;10.952;2024-03-02T07:40:22;9.50;99.90
10883;DHT22;5494;51.796;10.952;2024-03-02T07:42:50;9.70;95.00
10883;DHT22;5494;51.796;10.952;2024-03-02T07:45:18;9.70;28.60
10883;DHT22;5494;51.796;10.952;2024-03-02T07:47:48;10.00;1.00
10883;DHT22;5494;51.796;10.952;2024-03-02T07:50:16;10.10;1.00
10883;DHT22;5494;51.796;10.952;2024-03-02T07:52:44;10.20;1.00
10883;DHT22;5494;51.796;10.952;2024-03-02T07:55:12;10.30;1.00
10883;DHT22;5494;51.796;10.952;2024-03-02T07:57:40;10.40;1.00
10883;DHT22;5494;51.796;10.952;2024-03-02T08:00:10;10.50;1.00
10883;DHT22;5494;51.796;10.952;2024-03-02T08:02:40;10.50;1.00
10883;DHT22;5494;51.796;10.952;2024-03-02T08:05:10;10.60;1.00
10883;DHT22;5494;51.796;10.952;2024-03-02T08:07:38;10.80;1.00
10883;DHT22;5494;51.796;10.952;2024-03-02T08:10:07;11.10;1.00
10883;DHT22;5494;51.796;10.952;2024-03-02T08:12:36;11.40;99.90
10883;DHT22;5494;51.796;10.952;2024-03-02T08:15:05;11.60;1.00
10883;DHT22;5494;51.796;10.952;2024-03-02T08:17:33;11.90;1.00
10883;DHT22;5494;51.796;10.952;2024-03-02T08:20:05;12.20;99.90
10883;DHT22;5494;51.796;10.952;2024-03-02T08:22:36;12.50;99.90
10883;DHT22;5494;51.796;10.952;2024-03-02T08:25:04;12.80;1.00
10883;DHT22;5494;51.796;10.952;2024-03-02T08:27:33;13.10;99.90
10883;DHT22;5494;51.796;10.952;2024-03-02T08:30:01;13.30;1.00
10883;DHT22;5494;51.796;10.952;2024-03-02T08:32:33;13.50;99.90
10883;DHT22;5494;51.796;10.952;2024-03-02T08:35:01;13.50;1.00
10883;DHT22;5494;51.796;10.952;2024-03-02T08:37:29;13.50;99.90
10883;DHT22;5494;51.796;10.952;2024-03-02T08:40:00;13.40;53.80
10883;DHT22;5494;51.796;10.952;2024-03-02T08:42:30;13.30;99.90
10883;DHT22;5494;51.796;10.952;2024-03-02T08:44:58;13.00;1.00
10883;DHT22;5494;51.796;10.952;2024-03-02T08:47:27;12.80;1.00
10883;DHT22;5494;51.796;10.952;2024-03-02T08:49:55;12.80;99.90
10883;DHT22;5494;51.796;10.952;2024-03-02T08:52:27;12.90;1.00
10883;DHT22;5494;51.796;10.952;2024-03-02T08:54:55;13.10;1.00
10883;DHT22;5494;51.796;10.952;2024-03-02T08:57:24;13.30;99.90
10883;DHT22;5494;51.796;10.952;2024-03-02T08:59:52;13.70;1.00
10883;DHT22;5494;51.796;10.952;2024-03-02T09:02:21;14.20;99.90
10883;DHT22;5494;51.796;10.952;2024-03-02T09:04:49;14.70;1.00
10883;DHT22;5494;51.796;10.952;2024-03-02T09:07:18;14.70;1.00
10883;DHT22;5494;51.796;10.952;2024-03-02T09:09:46;14.70;1.00
10883;DHT22;5494;51.796;10.952;2024-03-02T09:12:14;14.80;1.00
10883;DHT22;5494;51.796;10.952;2024-03-02T09:14:44;15.10;1.00
10883;DHT22;5494;51.796;10.952;2024-03-02T09:17:13;15.40;99.90
10883;DHT22;5494;51.796;10.952;2024-03-02T09:19:41;15.60;99.90
10883;DHT22;5494;51.796;10.952;2024-03-02T09:22:09;15.50;99.90
10883;DHT22;5494;51.796;10.952;2024-03-02T09:24:37;15.80;99.90
10883;DHT22;5494;51.796;10.952;2024-03-02T09:27:05;16.00;99.90
10883;DHT22;5494;51.796;10.952;2024-03-02T09:29:33;16.10;99.90
10883;DHT22;5494;51.796;10.952;2024-03-02T09:32:03;16.50;99.90
10883;DHT22;5494;51.796;10.952;2024-03-02T09:34:35;16.80;40.00
10883;DHT22;5494;51.796;10.952;2024-03-02T09:37:03;17.40;1.00
10883;DHT22;5494;51.796;10.952;2024-03-02T09:39:31;17.70;1.00
10883;DHT22;5494;51.796;10.952;2024-03-02T09:41:59;17.90;1.00
10883;DHT22;5494;51.796;10.952;2024-03-02T09:44:29;18.00;1.00
10883;DHT22;5494;51.796;10.952;2024-03-02T09:46:57;18.10;1.00
10883;DHT22;5494;51.796;10.952;2024-03-02T09:49:26;18.20;1.00
10883;DHT22;5494;51.796;10.952;2024-03-02T09:51:54;18.00;1.00
10883;DHT22;5494;51.796;10.952;2024-03-02T09:54:23;17.90;1.00
10883;DHT22;5494;51.796;10.952;2024-03-02T09:56:51;17.70;1.00
10883;DHT22;5494;51.796;10.952;2024-03-02T09:59:19;17.70;1.00
10883;DHT22;5494;51.796;10.952;2024-03-02T10:01:56;17.30;1.00
10883;DHT22;5494;51.796;10.952;2024-03-02T10:04:28;17.30;1.00
10883;DHT22;5494;51.796;10.952;2024-03-02T10:07:14;17.20;1.00
10883;DHT22;5494;51.796;10.952;2024-03-02T10:09:45;17.00;1.00
10883;DHT22;5494;51.796;10.952;2024-03-02T10:12:15;16.70;1.00
10883;DHT22;5494;51.796;10.952;2024-03-02T10:14:45;16.40;1.00
10883;DHT22;5494;51.796;10.952;2024-03-02T10:17:17;16.00;1.00
10883;DHT22;5494;51.796;10.952;2024-03-02T10:19:47;15.60;1.00
10883;DHT22;5494;51.796;10.952;2024-03-02T10:22:15;15.60;1.00
10883;DHT22;5494;51.796;10.952;2024-03-02T10:24:43;15.70;9.30
10883;DHT22;5494;51.796;10.952;2024-03-02T10:27:15;15.60;15.50
10883;DHT22;5494;51.796;10.952;2024-03-02T10:29:46;15.50;23.00
10883;DHT22;5494;51.796;10.952;2024-03-02T10:32:15;15.30;24.70
10883;DHT22;5494;51.796;10.952;2024-03-02T10:34:46;15.20;35.90
10883;DHT22;5494;51.796;10.952;2024-03-02T10:37:15;15.30;1.00
10883;DHT22;5494;51.796;10.952;2024-03-02T10:39:46;15.30;1.00
10883;DHT22;5494;51.796;10.952;2024-03-02T10:42:16;15.10;5.70
10883;DHT22;5494;51.796;10.952;2024-03-02T10:44:45;15.00;1.00
10883;DHT22;5494;51.796;10.952;2024-03-02T10:47:14;15.10;1.00
10883;DHT22;5494;51.796;10.952;2024-03-02T10:49:47;14.90;17.60
10883;DHT22;5494;51.796;10.952;2024-03-02T10:52:19;14.80;38.10
10883;DHT22;5494;51.796;10.952;2024-03-02T10:54:49;14.70;75.50
10883;DHT22;5494;51.796;10.952;2024-03-02T10:57:20;14.80;42.00
10883;DHT22;5494;51.796;10.952;2024-03-02T10:59:52;14.70;33.40
10883;DHT22;5494;51.796;10.952;2024-03-02T11:02:24;14.40;48.90
10883;DHT22;5494;51.796;10.952;2024-03-02T11:04:55;14.40;81.10
10883;DHT22;5494;51.796;10.952;2024-03-02T11:07:25;14.60;29.70
10883;DHT22;5494;51.796;10.952;2024-03-02T11:09:59;14.70;81.80
10883;DHT22;5494;51.796;10.952;2024-03-02T11:12:38;14.90;28.10
10883;DHT22;5494;51.796;10.952;2024-03-02T11:15:10;15.30;1.00
10883;DHT22;5494;51.796;10.952;2024-03-02T11:17:41;15.60;1.00
10883;DHT22;5494;51.796;10.952;2024-03-02T11:20:11;15.70;1.00
10883;DHT22;5494;51.796;10.952;2024-03-02T11:22:41;15.70;1.00
10883;DHT22;5494;51.796;10.952;2024-03-02T11:25:23;15.70;1.00
10883;DHT22;5494;51.796;10.952;2024-03-02T11:28:03;16.00;1.00
10883;DHT22;5494;51.796;10.952;2024-03-02T11:30:51;16.10;1.00
10883;DHT22;5494;51.796;10.952;2024-03-02T11:33:24;16.20;1.00
10883;DHT22;5494;51.796;10.952;2024-03-02T11:35:56;16.50;1.00
10883;DHT22;5494;51.796;10.952;2024-03-02T11:38:31;16.70;1.00
10883;DHT22;5494;51.796;10.952;2024-03-02T11:41:01;16.60;1.00
10883;DHT22;5494;51.796;10.952;2024-03-02T11:43:37;16.30;1.00
10883;DHT22;5494;51.796;10.952;2024-03-02T11:46:07;16.30;1.00
10883;DHT22;5494;51.796;10.952;2024-03-02T11:48:36;16.10;1.00
10883;DHT22;5494;51.796;10.952;2024-03-02T11:51:06;16.00;1.00
10883;DHT22;5494;51.796;10.952;2024-03-02T11:53:35;15.80;1.00
10883;DHT22;5494;51.796;10.952;2024-03-02T11:56:07;15.30;1.00
10883;DHT22;5494;51.796;10.952;2024-03-02T11:58:39;15.20;1.00
10883;DHT22;5494;51.796;10.952;2024-03-02T12:01:08;15.00;1.00
10883;DHT22;5494;51.796;10.952;2024-03-02T12:03:38;15.00;1.00
10883;DHT22;5494;51.796;10.952;2024-03-02T12:06:07;15.00;1.00
10883;DHT22;5494;51.796;10.952;2024-03-02T12:08:36;14.90;1.00
10883;DHT22;5494;51.796;10.952;2024-03-02T12:11:04;14.90;1.00
10883;DHT22;5494;51.796;10.952;2024-03-02T12:13:34;14.90;1.00
10883;DHT22;5494;51.796;10.952;2024-03-02T12:16:02;14.80;1.00
10883;DHT22;5494;51.796;10.952;2024-03-02T12:18:30;14.80;2.50
10883;DHT22;5494;51.796;10.952;2024-03-02T12:20:59;14.80;2.90
10883;DHT22;5494;51.796;10.952;2024-03-02T12:23:31;14.90;1.00
10883;DHT22;5494;51.796;10.952;2024-03-02T12:25:59;15.00;1.00
10883;DHT22;5494;51.796;10.952;2024-03-02T12:28:27;15.20;1.00
10883;DHT22;5494;51.796;10.952;2024-03-02T12:30:58;15.40;1.00
10883;DHT22;5494;51.796;10.952;2024-03-02T12:33:26;15.60;1.00
10883;DHT22;5494;51.796;10.952;2024-03-02T12:35:56;15.50;1.00
10883;DHT22;5494;51.796;10.952;2024-03-02T12:38:25;15.60;1.00
10883;DHT22;5494;51.796;10.952;2024-03-02T12:40:55;15.50;1.00
10883;DHT22;5494;51.796;10.952;2024-03-02T12:43:23;15.60;1.00
10883;DHT22;5494;51.796;10.952;2024-03-02T12:45:52;15.60;1.00
10883;DHT22;5494;51.796;10.952;2024-03-02T12:48:22;15.60;1.00
10883;DHT22;5494;51.796;10.952;2024-03-02T12:50:51;15.50;1.00
10883;DHT22;5494;51.796;10.952;2024-03-02T12:53:19;15.30;1.00
10883;DHT22;5494;51.796;10.952;2024-03-02T12:55:49;15.30;1.00
10883;DHT22;5494;51.796;10.952;2024-03-02T12:58:19;15.30;1.00
10883;DHT22;5494;51.796;10.952;2024-03-02T13:00:48;15.30;1.00
10883;DHT22;5494;51.796;10.952;2024-03-02T13:03:18;15.20;1.00
10883;DHT22;5494;51.796;10.952;2024-03-02T13:05:49;15.30;1.00
10883;DHT22;5494;51.796;10.952;2024-03-02T13:08:18;15.20;1.00
10883;DHT22;5494;51.796;10.952;2024-03-02T13:10:46;15.10;1.00
10883;DHT22;5494;51.796;10.952;2024-03-02T13:13:14;15.10;1.00
10883;DHT22;5494;51.796;10.952;2024-03-02T13:15:44;15.00;1.00
10883;DHT22;5494;51.796;10.952;2024-03-02T13:18:12;15.00;1.00
10883;DHT22;5494;51.796;10.952;2024-03-02T13:20:40;15.20;1.00
10883;DHT22;5494;51.796;10.952;2024-03-02T13:23:08;15.20;1.00
10883;DHT22;5494;51.796;10.952;2024-03-02T13:25:37;15.20;1.00
10883;DHT22;5494;51.796;10.952;2024-03-02T13:28:05;15.20;1.00
10883;DHT22;5494;51.796;10.952;2024-03-02T13:30:34;15.10;1.00
10883;DHT22;5494;51.796;10.952;2024-03-02T13:33:04;15.00;1.00
10883;DHT22;5494;51.796;10.952;2024-03-02T13:35:32;15.10;1.00
10883;DHT22;5494;51.796;10.952;2024-03-02T13:38:00;15.20;1.00
10883;DHT22;5494;51.796;10.952;2024-03-02T13:40:28;15.20;1.00
10883;DHT22;5494;51.796;10.952;2024-03-02T13:42:57;15.00;1.00
10883;DHT22;5494;51.796;10.952;2024-03-02T13:45:25;14.90;1.00
10883;DHT22;5494;51.796;10.952;2024-03-02T13:47:54;14.80;1.00
10883;DHT22;5494;51.796;10.952;2024-03-02T13:50:23;14.70;1.00
10883;DHT22;5494;51.796;10.952;2024-03-02T13:52:51;14.60;1.00
10883;DHT22;5494;51.796;10.952;2024-03-02T13:55:19;14.70;1.00
10883;DHT22;5494;51.796;10.952;2024-03-02T13:57:47;14.70;1.00
10883;DHT22;5494;51.796;10.952;2024-03-02T14:00:17;14.60;1.00
10883;DHT22;5494;51.796;10.952;2024-03-02T14:02:47;14.60;1.00
10883;DHT22;5494;51.796;10.952;2024-03-02T14:05:16;14.50;1.00
10883;DHT22;5494;51.796;10.952;2024-03-02T14:07:47;14.50;1.00
10883;DHT22;5494;51.796;10.952;2024-03-02T14:10:15;14.50;1.00
10883;DHT22;5494;51.796;10.952;2024-03-02T14:12:44;14.60;1.00
10883;DHT22;5494;51.796;10.952;2024-03-02T14:15:12;14.60;1.00
10883;DHT22;5494;51.796;10.952;2024-03-02T14:17:42;14.60;11.50
10883;DHT22;5494;51.796;10.952;2024-03-02T14:20:10;14.60;45.80
10883;DHT22;5494;51.796;10.952;2024-03-02T14:22:40;14.60;48.30
10883;DHT22;5494;51.796;10.952;2024-03-02T14:25:09;14.60;23.90
10883;DHT22;5494;51.796;10.952;2024-03-02T14:27:37;14.40;81.50
10883;DHT22;5494;51.796;10.952;2024-03-02T14:30:10;14.30;77.50
10883;DHT22;5494;51.796;10.952;2024-03-02T14:32:39;14.20;67.70
10883;DHT22;5494;51.796;10.952;2024-03-02T14:35:07;14.20;70.20
10883;DHT22;5494;51.796;10.952;2024-03-02T14:37:38;14.10;83.20
10883;DHT22;5494;51.796;10.952;2024-03-02T14:40:09;14.20;72.40
10883;DHT22;5494;51.796;10.952;2024-03-02T14:42:39;14.20;51.10
10883;DHT22;5494;51.796;10.952;2024-03-02T14:45:07;14.30;64.60
10883;DHT22;5494;51.796;10.952;2024-03-02T14:47:36;14.30;13.40
10883;DHT22;5494;51.796;10.952;2024-03-02T14:50:04;14.20;25.50
10883;DHT22;5494;51.796;10.952;2024-03-02T14:52:33;14.20;31.80
10883;DHT22;5494;51.796;10.952;2024-03-02T14:55:01;14.10;20.60
10883;DHT22;5494;51.796;10.952;2024-03-02T14:57:33;14.00;39.70
10883;DHT22;5494;51.796;10.952;2024-03-02T15:00:01;14.00;1.00
10883;DHT22;5494;51.796;10.952;2024-03-02T15:02:29;13.90;1.00
10883;DHT22;5494;51.796;10.952;2024-03-02T15:04:57;13.80;1.00
10883;DHT22;5494;51.796;10.952;2024-03-02T15:07:26;13.80;1.00
10883;DHT22;5494;51.796;10.952;2024-03-02T15:09:54;13.70;1.00
10883;DHT22;5494;51.796;10.952;2024-03-02T15:12:22;13.70;1.00
10883;DHT22;5494;51.796;10.952;2024-03-02T15:14:52;13.70;1.00
10883;DHT22;5494;51.796;10.952;2024-03-02T15:17:20;13.60;1.00
10883;DHT22;5494;51.796;10.952;2024-03-02T15:19:48;13.50;21.00
10883;DHT22;5494;51.796;10.952;2024-03-02T15:22:16;13.40;37.40
10883;DHT22;5494;51.796;10.952;2024-03-02T15:24:44;13.40;39.80
10883;DHT22;5494;51.796;10.952;2024-03-02T15:27:12;13.30;67.50
10883;DHT22;5494;51.796;10.952;2024-03-02T15:29:40;13.30;92.20
10883;DHT22;5494;51.796;10.952;2024-03-02T15:32:09;13.20;64.50
10883;DHT22;5494;51.796;10.952;2024-03-02T15:34:37;13.20;95.60
10883;DHT22;5494;51.796;10.952;2024-03-02T15:37:05;13.20;94.50
10883;DHT22;5494;51.796;10.952;2024-03-02T15:39:33;13.20;92.60
10883;DHT22;5494;51.796;10.952;2024-03-02T15:42:02;13.10;94.90
10883;DHT22;5494;51.796;10.952;2024-03-02T15:44:31;13.10;99.90
10883;DHT22;5494;51.796;10.952;2024-03-02T15:46:59;13.10;99.90
10883;DHT22;5494;51.796;10.952;2024-03-02T15:49:28;13.00;99.90
10883;DHT22;5494;51.796;10.952;2024-03-02T15:51:58;13.00;99.90
10883;DHT22;5494;51.796;10.952;2024-03-02T15:54:27;13.00;99.90
10883;DHT22;5494;51.796;10.952;2024-03-02T15:56:56;12.90;99.90
10883;DHT22;5494;51.796;10.952;2024-03-02T15:59:24;12.90;99.90